createdAt,value
2022-08-03T00:01:49.271Z,20.67
2022-08-03T00:04:15.859Z,20.66
2022-08-03T00:06:42.892Z,20.64
2022-08-03T00:09:10.038Z,20.57
2022-08-03T00:11:36.853Z,20.53
2022-08-03T00:14:05.041Z,20.50
2022-08-03T00:16:31.692Z,20.50
2022-08-03T00:18:58.419Z,20.48
2022-08-03T00:21:28.751Z,20.43
2022-08-03T00:23:56.240Z,20.40
2022-08-03T00:26:22.819Z,20.38
2022-08-03T00:28:49.978Z,20.36
2022-08-03T00:31:19.735Z,20.27
2022-08-03T00:34:03.699Z,20.23
2022-08-03T00:36:30.850Z,20.21
2022-08-03T00:38:57.732Z,20.15
2022-08-03T00:41:24.356Z,20.12
2022-08-03T00:43:51.243Z,20.13
2022-08-03T00:46:21.604Z,20.02
2022-08-03T00:48:49.821Z,19.99
2022-08-03T00:51:16.604Z,19.99
2022-08-03T00:53:43.430Z,19.99
2022-08-03T00:56:13.861Z,19.94
2022-08-03T00:58:40.477Z,19.88
2022-08-03T01:01:07.364Z,19.77
2022-08-03T01:03:34.562Z,19.70
2022-08-03T01:06:16.834Z,19.70
2022-08-03T01:08:49.214Z,19.71
2022-08-03T01:12:00.895Z,19.70
2022-08-03T01:14:37.392Z,19.65
2022-08-03T01:17:24.406Z,19.63
2022-08-03T01:20:02.577Z,19.62
2022-08-03T01:22:35.062Z,19.61
2022-08-03T01:25:28.914Z,19.59
2022-08-03T01:28:37.407Z,19.58
2022-08-03T01:31:10.337Z,19.55
2022-08-03T01:33:43.856Z,19.47
2022-08-03T01:36:14.720Z,19.41
2022-08-03T01:39:01.253Z,19.36
2022-08-03T01:41:37.417Z,19.26
2022-08-03T01:44:29.760Z,19.24
2022-08-03T01:46:56.968Z,19.23
2022-08-03T01:49:25.784Z,19.20
2022-08-03T01:51:58.015Z,19.15
2022-08-03T01:54:32.756Z,19.12
2022-08-03T01:56:59.752Z,19.15
2022-08-03T01:59:29.701Z,19.19
2022-08-03T02:02:16.050Z,19.20
2022-08-03T02:04:46.983Z,19.13
2022-08-03T02:07:16.293Z,19.02
2022-08-03T02:09:45.556Z,18.96
2022-08-03T02:12:15.018Z,18.91
2022-08-03T02:14:44.375Z,18.93
2022-08-03T02:17:12.723Z,18.90
2022-08-03T02:19:40.693Z,18.91
2022-08-03T02:22:09.497Z,18.91
2022-08-03T02:24:36.137Z,18.88
2022-08-03T02:27:05.887Z,18.87
2022-08-03T02:29:39.368Z,18.88
2022-08-03T02:32:10.550Z,18.91
2022-08-03T02:34:39.944Z,18.93
2022-08-03T02:37:08.621Z,18.93
2022-08-03T02:39:36.741Z,18.93
2022-08-03T02:42:05.431Z,18.98
2022-08-03T02:44:35.580Z,19.00
2022-08-03T02:47:07.448Z,19.02
2022-08-03T02:49:50.143Z,19.01
2022-08-03T02:52:24.022Z,19.01
2022-08-03T02:54:54.985Z,19.01
2022-08-03T02:57:23.279Z,19.02
2022-08-03T02:59:51.676Z,19.00
2022-08-03T03:02:19.863Z,18.98
2022-08-03T03:04:58.094Z,18.95
2022-08-03T03:07:51.400Z,18.89
2022-08-03T03:10:21.728Z,18.82
2022-08-03T03:12:51.373Z,18.84
2022-08-03T03:15:18.917Z,18.83
2022-08-03T03:17:46.588Z,18.82
2022-08-03T03:20:15.282Z,18.81
2022-08-03T03:22:59.182Z,18.79
2022-08-03T03:25:25.951Z,18.75
2022-08-03T03:27:52.919Z,18.73
2022-08-03T03:30:19.554Z,18.72
2022-08-03T03:32:46.143Z,18.69
2022-08-03T03:35:14.853Z,18.69
2022-08-03T03:37:41.383Z,18.68
2022-08-03T03:40:09.150Z,18.69
2022-08-03T03:42:38.325Z,18.65
2022-08-03T03:45:06.422Z,18.65
2022-08-03T03:47:34.952Z,18.62
2022-08-03T03:50:05.931Z,18.59
2022-08-03T03:52:33.259Z,18.58
2022-08-03T03:55:01.318Z,18.57
2022-08-03T03:57:29.453Z,18.59
2022-08-03T03:59:56.245Z,18.59
2022-08-03T04:02:22.884Z,18.61
2022-08-03T04:05:08.044Z,18.58
2022-08-03T04:08:05.030Z,18.59
2022-08-03T04:10:54.487Z,18.61
2022-08-03T04:13:22.173Z,18.58
2022-08-03T04:15:50.193Z,18.62
2022-08-03T04:18:17.873Z,18.62
2022-08-03T04:20:47.764Z,18.62
2022-08-03T04:23:18.025Z,18.61
2022-08-03T04:25:46.711Z,18.65
2022-08-03T04:28:30.854Z,18.64
2022-08-03T04:31:00.865Z,18.66
2022-08-03T04:33:30.840Z,18.69
2022-08-03T04:36:02.526Z,18.71
2022-08-03T04:38:32.932Z,18.70
2022-08-03T04:41:01.025Z,18.72
2022-08-03T04:43:28.722Z,18.75
2022-08-03T04:45:57.052Z,18.75
2022-08-03T04:48:24.608Z,18.77
2022-08-03T04:50:51.898Z,18.78
2022-08-03T04:53:19.620Z,18.79
2022-08-03T04:55:46.848Z,18.83
2022-08-03T04:58:13.521Z,18.87
2022-08-03T05:00:40.026Z,18.91
2022-08-03T05:03:19.530Z,18.92
2022-08-03T05:06:09.412Z,18.93
2022-08-03T05:08:46.421Z,18.92
2022-08-03T05:11:16.399Z,18.95
2022-08-03T05:13:43.578Z,18.95
2022-08-03T05:16:10.298Z,18.95
2022-08-03T05:18:36.831Z,18.94
2022-08-03T05:21:03.941Z,18.95
2022-08-03T05:23:30.966Z,18.95
2022-08-03T05:25:57.598Z,18.93
2022-08-03T05:28:24.184Z,18.92
2022-08-03T05:30:50.919Z,18.89
2022-08-03T05:33:17.425Z,18.90
2022-08-03T05:36:00.709Z,18.92
2022-08-03T05:38:34.103Z,18.94
2022-08-03T05:41:22.765Z,18.96
2022-08-03T05:43:54.649Z,18.99
2022-08-03T05:46:22.744Z,19.08
2022-08-03T05:48:49.553Z,19.15
2022-08-03T05:51:16.125Z,19.20
2022-08-03T05:53:43.327Z,19.23
2022-08-03T05:56:13.786Z,19.28
2022-08-03T05:58:47.393Z,19.35
2022-08-03T06:01:15.464Z,19.38
2022-08-03T06:03:42.034Z,19.44
2022-08-03T06:06:12.025Z,19.51
2022-08-03T06:08:39.508Z,19.60
2022-08-03T06:11:06.036Z,19.67
2022-08-03T06:13:32.902Z,19.74
2022-08-03T06:15:59.555Z,19.86
2022-08-03T06:18:26.133Z,19.99
2022-08-03T06:20:53.371Z,20.12
2022-08-03T06:23:20.001Z,20.21
2022-08-03T06:25:47.499Z,20.26
2022-08-03T06:28:42.370Z,20.38
2022-08-03T06:31:01.465Z,20.45
2022-08-03T06:34:30.651Z,20.54
2022-08-03T06:36:15.362Z,20.62
2022-08-03T06:38:42.014Z,20.71
2022-08-03T06:41:08.589Z,20.77
2022-08-03T06:43:37.757Z,20.86
2022-08-03T06:46:08.011Z,20.91
2022-08-03T06:48:34.524Z,20.96
2022-08-03T06:51:01.043Z,20.98
2022-08-03T06:53:27.601Z,21.09
2022-08-03T06:55:55.181Z,21.18
2022-08-03T06:58:22.095Z,21.21
2022-08-03T07:00:48.636Z,21.19
2022-08-03T07:03:15.230Z,21.15
2022-08-03T07:05:42.909Z,21.12
2022-08-03T07:08:10.034Z,21.01
2022-08-03T07:10:37.032Z,21.03
2022-08-03T07:13:04.340Z,21.08
2022-08-03T07:15:54.141Z,21.06
2022-08-03T07:18:17.789Z,21.12
2022-08-03T07:20:55.481Z,21.30
2022-08-03T07:23:22.642Z,21.45
2022-08-03T07:25:49.224Z,21.55
2022-08-03T07:28:15.766Z,21.54
2022-08-03T07:30:42.278Z,21.50
2022-08-03T07:33:08.780Z,21.59
2022-08-03T07:35:35.397Z,21.66
2022-08-03T07:38:02.018Z,21.75
2022-08-03T07:40:30.662Z,21.82
2022-08-03T07:42:58.788Z,21.85
2022-08-03T07:45:26.571Z,21.91
2022-08-03T07:47:53.486Z,22.00
2022-08-03T07:50:21.041Z,21.97
2022-08-03T07:52:47.946Z,21.98
2022-08-03T07:55:14.950Z,22.03
2022-08-03T07:57:41.523Z,22.09
2022-08-03T08:00:18.013Z,22.17
2022-08-03T08:02:45.577Z,22.23
2022-08-03T08:05:12.611Z,22.26
2022-08-03T08:07:40.177Z,22.29
2022-08-03T08:10:08.406Z,22.39
2022-08-03T08:12:35.035Z,22.45
2022-08-03T08:15:02.179Z,22.50
2022-08-03T08:17:28.737Z,22.54
2022-08-03T08:19:55.363Z,22.62
2022-08-03T08:22:28.086Z,22.67
2022-08-03T08:24:58.270Z,22.65
2022-08-03T08:27:24.831Z,22.69
2022-08-03T08:29:54.510Z,22.76
2022-08-03T08:32:23.137Z,22.82
2022-08-03T08:34:49.686Z,22.88
2022-08-03T08:37:16.460Z,22.92
2022-08-03T08:39:42.967Z,22.98
2022-08-03T08:42:10.263Z,23.01
2022-08-03T08:44:37.008Z,23.10
2022-08-03T08:47:04.598Z,23.13
2022-08-03T08:49:33.049Z,23.23
2022-08-03T08:52:03.193Z,23.31
2022-08-03T08:54:32.490Z,23.41
2022-08-03T08:57:03.060Z,23.47
2022-08-03T08:59:48.028Z,23.48
2022-08-03T09:02:15.783Z,23.58
2022-08-03T09:04:42.789Z,23.66
2022-08-03T09:07:29.124Z,23.74
2022-08-03T09:10:05.968Z,23.85
2022-08-03T09:12:43.260Z,23.97
2022-08-03T09:15:17.553Z,24.08
2022-08-03T09:17:47.678Z,24.10
2022-08-03T09:20:18.197Z,24.18
2022-08-03T09:22:55.708Z,24.18
2022-08-03T09:25:32.683Z,24.17
2022-08-03T09:28:13.919Z,24.22
2022-08-03T09:31:00.636Z,24.27
2022-08-03T09:33:27.223Z,24.30
2022-08-03T09:36:02.890Z,24.34
2022-08-03T09:38:29.395Z,24.50
2022-08-03T09:41:00.488Z,24.65
2022-08-03T09:43:27.968Z,24.72
2022-08-03T09:46:03.643Z,24.84
2022-08-03T09:48:31.733Z,25.00
2022-08-03T09:51:13.424Z,25.11
2022-08-03T09:53:56.994Z,25.25
2022-08-03T09:56:39.034Z,25.35
2022-08-03T09:59:05.715Z,25.50
2022-08-03T10:01:35.968Z,25.59
2022-08-03T10:04:05.215Z,25.65
2022-08-03T10:06:32.086Z,25.85
2022-08-03T10:09:16.833Z,26.01
2022-08-03T10:11:44.581Z,26.07
2022-08-03T10:14:19.058Z,26.12
2022-08-03T10:16:47.110Z,26.17
2022-08-03T10:19:15.093Z,26.27
2022-08-03T10:21:55.323Z,26.31
2022-08-03T10:24:27.144Z,26.48
2022-08-03T10:27:01.195Z,26.67
2022-08-03T10:29:29.648Z,26.79
2022-08-03T10:31:59.056Z,26.85
2022-08-03T10:34:34.435Z,26.98
2022-08-03T10:37:05.471Z,27.12
2022-08-03T10:39:32.063Z,27.29
2022-08-03T10:41:59.988Z,27.39
2022-08-03T10:44:33.783Z,27.51
2022-08-03T10:47:01.531Z,27.57
2022-08-03T10:49:34.770Z,27.62
2022-08-03T10:52:12.956Z,27.67
2022-08-03T10:55:03.300Z,27.75
2022-08-03T10:57:56.114Z,27.97
2022-08-03T11:00:30.098Z,28.07
2022-08-03T11:03:15.887Z,28.20
2022-08-03T11:05:47.345Z,28.24
2022-08-03T11:08:27.913Z,28.44
2022-08-03T11:11:17.472Z,28.63
2022-08-03T11:14:10.296Z,28.68
2022-08-03T11:16:42.425Z,28.73
2022-08-03T11:19:11.397Z,28.75
2022-08-03T11:21:50.024Z,28.81
2022-08-03T11:24:39.346Z,28.82
2022-08-03T11:27:18.563Z,28.86
2022-08-03T11:30:20.311Z,28.94
2022-08-03T11:32:57.766Z,29.06
2022-08-03T11:35:33.795Z,29.09
2022-08-03T11:38:03.262Z,29.08
2022-08-03T11:40:45.056Z,29.19
2022-08-03T11:43:35.429Z,29.31
2022-08-03T11:46:05.321Z,29.32
2022-08-03T11:48:37.513Z,29.53
2022-08-03T11:51:18.604Z,29.56
2022-08-03T11:53:47.784Z,29.66
2022-08-03T11:56:14.415Z,29.74
2022-08-03T11:59:00.900Z,29.90
2022-08-03T12:01:35.497Z,29.91
2022-08-03T12:04:06.160Z,29.98
2022-08-03T12:06:55.004Z,30.06
2022-08-03T12:09:22.305Z,30.15
2022-08-03T12:11:59.783Z,30.20
2022-08-03T12:14:49.993Z,30.14
2022-08-03T12:17:15.138Z,30.23
2022-08-03T12:19:43.290Z,30.29
2022-08-03T12:22:09.920Z,30.40
2022-08-03T12:24:47.661Z,30.29
2022-08-03T12:27:24.345Z,30.32
2022-08-03T12:29:58.359Z,30.44
2022-08-03T12:32:26.794Z,30.58
2022-08-03T12:34:53.521Z,30.63
2022-08-03T12:37:23.215Z,30.67
2022-08-03T12:40:02.214Z,30.70
2022-08-03T12:42:35.520Z,30.75
2022-08-03T12:45:28.587Z,30.84
2022-08-03T12:48:02.082Z,30.96
2022-08-03T12:50:31.333Z,30.99
2022-08-03T12:52:59.364Z,31.01
2022-08-03T12:55:57.821Z,31.13
2022-08-03T12:58:35.312Z,31.26
2022-08-03T13:01:09.889Z,31.21
2022-08-03T13:03:50.232Z,31.37
2022-08-03T13:06:22.140Z,31.30
2022-08-03T13:08:50.006Z,31.27
2022-08-03T13:11:55.868Z,31.27
2022-08-03T13:14:13.549Z,31.24
2022-08-03T13:16:46.329Z,31.27
2022-08-03T13:19:15.693Z,31.39
2022-08-03T13:22:02.169Z,31.43
2022-08-03T13:24:30.581Z,31.54
2022-08-03T13:26:58.380Z,31.58
2022-08-03T13:29:24.886Z,31.46
2022-08-03T13:31:51.688Z,31.39
2022-08-03T13:34:23.232Z,31.42
2022-08-03T13:37:08.483Z,31.67
2022-08-03T13:39:58.471Z,31.85
2022-08-03T13:42:22.834Z,31.94
2022-08-03T13:44:49.373Z,31.99
2022-08-03T13:47:16.202Z,31.99
2022-08-03T13:49:42.917Z,31.87
2022-08-03T13:52:27.681Z,31.80
2022-08-03T13:54:54.225Z,31.92
2022-08-03T13:58:03.796Z,32.02
2022-08-03T14:00:09.209Z,31.87
2022-08-03T14:02:35.849Z,31.79
2022-08-03T14:05:02.485Z,31.83
2022-08-03T14:07:29.005Z,31.92
2022-08-03T14:09:55.445Z,32.03
2022-08-03T14:12:22.002Z,32.03
2022-08-03T14:14:48.498Z,31.94
2022-08-03T14:17:16.301Z,31.99
2022-08-03T14:19:53.523Z,32.09
2022-08-03T14:22:21.177Z,32.12
2022-08-03T14:24:49.359Z,32.06
2022-08-03T14:27:16.921Z,31.88
2022-08-03T14:29:43.471Z,31.82
2022-08-03T14:32:13.218Z,31.46
2022-08-03T14:34:40.418Z,31.28
2022-08-03T14:37:07.175Z,31.36
2022-08-03T14:42:20.501Z,31.60
2022-08-03T14:44:47.585Z,31.78
2022-08-03T14:47:14.519Z,31.98
2022-08-03T14:50:32.572Z,32.15
2022-08-03T14:52:27.987Z,32.15
2022-08-03T14:54:54.484Z,32.18
2022-08-03T14:57:21.314Z,32.05
2022-08-03T14:59:55.790Z,31.82
2022-08-03T15:02:25.017Z,32.01
2022-08-03T15:04:52.663Z,32.05
2022-08-03T15:07:20.437Z,31.62
2022-08-03T15:09:47.323Z,31.32
2022-08-03T15:12:14.028Z,31.66
2022-08-03T15:14:40.536Z,31.93
2022-08-03T15:17:07.608Z,31.80
2022-08-03T15:20:03.680Z,31.79
2022-08-03T15:22:24.935Z,31.80
2022-08-03T15:24:52.306Z,31.75
2022-08-03T15:27:19.233Z,31.84
2022-08-03T15:30:06.901Z,31.93
2022-08-03T15:32:34.106Z,31.98
2022-08-03T15:35:01.243Z,31.92
2022-08-03T15:37:28.081Z,31.91
2022-08-03T15:39:59.713Z,31.95
2022-08-03T15:42:29.304Z,31.82
2022-08-03T15:44:55.988Z,31.74
2022-08-03T15:47:22.693Z,31.86
2022-08-03T15:49:49.504Z,31.88
2022-08-03T15:52:16.035Z,31.92
2022-08-03T15:54:42.626Z,31.76
2022-08-03T15:57:09.136Z,31.60
2022-08-03T15:59:35.592Z,31.46
2022-08-03T16:02:02.671Z,31.36
2022-08-03T16:04:29.260Z,31.35
2022-08-03T16:06:55.916Z,31.44
2022-08-03T16:09:22.894Z,31.49
2022-08-03T16:12:13.280Z,31.43
2022-08-03T16:14:51.841Z,31.29
2022-08-03T16:17:19.510Z,31.25
2022-08-03T16:19:46.286Z,31.23
2022-08-03T16:22:14.394Z,31.20
2022-08-03T16:24:41.356Z,31.20
2022-08-03T16:27:25.048Z,31.14
2022-08-03T16:29:55.085Z,31.04
2022-08-03T16:32:21.645Z,31.01
2022-08-03T16:34:48.263Z,31.05
2022-08-03T16:37:37.766Z,31.16
2022-08-03T16:40:03.247Z,31.18
2022-08-03T16:42:29.918Z,31.15
2022-08-03T16:44:56.442Z,31.15
2022-08-03T16:47:23.161Z,31.20
2022-08-03T16:49:55.056Z,31.19
2022-08-03T16:52:23.245Z,31.16
2022-08-03T16:54:53.032Z,31.19
2022-08-03T16:57:55.660Z,31.23
2022-08-03T17:00:12.187Z,31.17
2022-08-03T17:03:00.889Z,31.15
2022-08-03T17:05:43.805Z,31.23
2022-08-03T17:08:14.647Z,31.24
2022-08-03T17:10:45.112Z,31.22
2022-08-03T17:13:22.101Z,31.14
2022-08-03T17:16:01.407Z,31.12
2022-08-03T17:18:34.959Z,30.98
2022-08-03T17:21:06.081Z,30.86
2022-08-03T17:23:49.831Z,30.80
2022-08-03T17:26:22.053Z,30.71
2022-08-03T17:28:56.479Z,30.58
2022-08-03T17:31:31.094Z,30.55
2022-08-03T17:34:00.791Z,30.50
2022-08-03T17:36:47.550Z,30.48
2022-08-03T17:39:16.762Z,30.50
2022-08-03T17:41:48.983Z,30.56
2022-08-03T17:44:31.171Z,30.61
2022-08-03T17:47:05.013Z,30.55
2022-08-03T17:49:40.067Z,30.52
2022-08-03T17:52:21.876Z,30.52
2022-08-03T17:55:55.443Z,30.52
2022-08-03T17:58:15.058Z,30.48
2022-08-03T18:01:04.732Z,30.48
2022-08-03T18:04:00.250Z,30.47
2022-08-03T18:06:31.158Z,30.40
2022-08-03T18:09:04.813Z,30.28
2022-08-03T18:11:51.250Z,30.21
2022-08-03T18:14:36.662Z,30.20
2022-08-03T18:17:10.881Z,30.14
2022-08-03T18:20:03.428Z,29.99
2022-08-03T18:22:28.197Z,29.96
2022-08-03T18:24:59.087Z,29.87
2022-08-03T18:27:45.392Z,29.82
2022-08-03T18:30:17.090Z,29.81
2022-08-03T18:32:43.960Z,29.78
2022-08-03T18:35:28.264Z,29.75
2022-08-03T18:38:15.733Z,29.75
2022-08-03T18:40:48.704Z,29.73
2022-08-03T18:43:17.522Z,29.69
2022-08-03T18:45:57.108Z,29.65
2022-08-03T18:48:32.810Z,29.56
2022-08-03T18:51:06.932Z,29.45
2022-08-03T18:54:02.631Z,29.36
2022-08-03T18:56:49.125Z,29.22
2022-08-03T18:59:27.154Z,29.05
2022-08-03T19:02:05.323Z,28.97
2022-08-03T19:04:46.789Z,28.87
2022-08-03T19:07:35.951Z,28.59
2022-08-03T19:10:09.704Z,28.32
2022-08-03T19:12:49.353Z,28.08
2022-08-03T19:15:36.135Z,27.98
2022-08-03T19:18:08.797Z,27.92
2022-08-03T19:20:41.398Z,27.90
2022-08-03T19:23:14.276Z,27.86
2022-08-03T19:25:41.439Z,27.81
2022-08-03T19:28:09.021Z,27.80
2022-08-03T19:30:40.117Z,27.66
2022-08-03T19:33:14.903Z,27.45
2022-08-03T19:35:51.428Z,27.25
2022-08-03T19:41:14.926Z,26.88
2022-08-03T19:43:57.761Z,26.79
2022-08-03T19:46:31.195Z,26.76
2022-08-03T19:49:15.353Z,26.77
2022-08-03T19:52:00.905Z,26.81
2022-08-03T19:54:39.579Z,26.82
2022-08-03T19:57:25.432Z,26.69
2022-08-03T19:59:55.112Z,26.61
2022-08-03T20:02:26.313Z,26.60
2022-08-03T20:04:55.310Z,26.41
2022-08-03T20:07:23.644Z,26.27
2022-08-03T20:09:56.079Z,26.27
2022-08-03T20:12:27.502Z,26.23
2022-08-03T20:14:57.418Z,26.23
2022-08-03T20:17:54.119Z,26.19
2022-08-03T20:20:13.988Z,26.17
2022-08-03T20:22:45.575Z,25.96
2022-08-03T20:25:20.865Z,25.66
2022-08-03T20:28:07.082Z,25.47
2022-08-03T20:30:42.520Z,25.38
2022-08-03T20:33:09.926Z,25.30
2022-08-03T20:35:36.397Z,25.26
2022-08-03T20:38:03.316Z,25.38
2022-08-03T20:40:29.898Z,25.47
2022-08-03T20:42:59.846Z,25.46
2022-08-03T20:45:59.040Z,25.41
2022-08-03T20:48:15.999Z,25.35
2022-08-03T20:50:43.830Z,25.28
2022-08-03T20:53:12.691Z,25.21
2022-08-03T20:55:48.028Z,25.08
2022-08-03T20:58:27.202Z,25.06
2022-08-03T21:00:56.753Z,25.11
2022-08-03T21:03:23.258Z,25.13
2022-08-03T21:08:46.886Z,25.06
2022-08-03T21:11:17.908Z,25.02
2022-08-03T21:13:02.596Z,27.02
2022-08-03T21:13:08.029Z,25.10
2022-08-03T21:13:52.094Z,25.02
2022-08-03T21:16:21.654Z,24.98
2022-08-03T21:18:52.780Z,24.94
2022-08-03T21:21:22.450Z,24.91
2022-08-03T21:23:52.556Z,24.87
2022-08-03T21:26:21.647Z,24.85
2022-08-03T21:28:49.784Z,24.79
2022-08-03T21:31:22.358Z,24.71
2022-08-03T21:33:56.991Z,24.45
2022-08-03T21:36:25.953Z,24.17
2022-08-03T21:38:56.160Z,23.95
2022-08-03T21:41:24.331Z,23.78
2022-08-03T21:43:50.808Z,23.74
2022-08-03T21:46:19.536Z,23.70
2022-08-03T21:48:53.390Z,23.74
2022-08-03T21:51:23.301Z,23.78
2022-08-03T21:54:02.839Z,23.58
2022-08-03T21:56:41.504Z,23.44
2022-08-03T21:59:15.755Z,23.31
2022-08-03T22:01:43.094Z,23.20
2022-08-03T22:04:11.984Z,23.20
2022-08-03T22:06:57.785Z,23.36
2022-08-03T22:09:24.426Z,23.35
2022-08-03T22:11:54.116Z,23.23
2022-08-03T22:14:21.628Z,23.30
2022-08-03T22:16:49.173Z,23.32
2022-08-03T22:19:15.770Z,23.25
2022-08-03T22:21:45.879Z,23.22
2022-08-03T22:24:15.551Z,23.20
2022-08-03T22:27:03.475Z,23.20
2022-08-03T22:29:32.774Z,23.22
2022-08-03T22:31:59.652Z,23.16
2022-08-03T22:34:27.193Z,23.14
2022-08-03T22:37:00.781Z,23.15
2022-08-03T22:39:28.826Z,23.20
2022-08-03T22:41:58.821Z,23.09
2022-08-03T22:44:26.911Z,23.06
2022-08-03T22:46:53.429Z,23.07
2022-08-03T22:49:20.679Z,23.03
2022-08-03T22:51:47.633Z,22.99
2022-08-03T22:54:14.761Z,22.89
2022-08-03T22:56:41.890Z,22.89
2022-08-03T22:59:40.808Z,22.95
2022-08-03T23:02:15.045Z,22.87
2022-08-03T23:04:51.141Z,22.76
2022-08-03T23:07:22.388Z,22.63
2022-08-03T23:09:49.534Z,22.58
2022-08-03T23:12:20.125Z,22.55
2022-08-03T23:14:54.306Z,22.47
2022-08-03T23:17:23.859Z,22.43
2022-08-03T23:19:52.737Z,22.40
2022-08-03T23:22:29.976Z,22.37
2022-08-03T23:24:58.803Z,22.33
2022-08-03T23:27:27.012Z,22.26
2022-08-03T23:29:54.062Z,22.14
2022-08-03T23:32:21.074Z,22.16
2022-08-03T23:35:07.308Z,22.06
2022-08-03T23:38:04.518Z,22.07
2022-08-03T23:40:29.524Z,22.07
2022-08-03T23:42:57.052Z,22.09
2022-08-03T23:45:25.805Z,22.04
2022-08-03T23:47:52.289Z,22.04
2022-08-03T23:50:19.090Z,22.07
2022-08-03T23:53:12.051Z,22.08
2022-08-03T23:55:47.686Z,22.03
2022-08-03T23:58:47.808Z,22.02
